sensor_id;sensor_type;location;lat;lon;timestamp;pressure;altitude;pressure_sealevel;temperature;humidity
4022;BME280;2025;48.260;16.432;2023-04-21T00:01:03;99871.81;;;5.70;87.80
4022;BME280;2025;48.260;16.432;2023-04-21T00:03:33;99876.72;;;5.54;88.71
4022;BME280;2025;48.260;16.432;2023-04-21T00:06:03;99875.22;;;5.51;89.86
4022;BME280;2025;48.260;16.432;2023-04-21T00:08:31;99862.69;;;5.55;90.31
4022;BME280;2025;48.260;16.432;2023-04-21T00:10:58;99871.00;;;5.79;89.06
4022;BME280;2025;48.260;16.432;2023-04-21T00:13:27;99868.97;;;5.83;88.24
4022;BME280;2025;48.260;16.432;2023-04-21T00:15:54;99866.84;;;5.57;88.06
4022;BME280;2025;48.260;16.432;2023-04-21T00:18:21;99871.09;;;5.48;88.66
4022;BME280;2025;48.260;16.432;2023-04-21T00:20:48;99860.38;;;5.52;88.99
4022;BME280;2025;48.260;16.432;2023-04-21T00:23:15;99861.19;;;5.52;88.56
4022;BME280;2025;48.260;16.432;2023-04-21T00:25:42;99863.53;;;5.45;88.65
4022;BME280;2025;48.260;16.432;2023-04-21T00:28:09;99863.19;;;5.29;88.59
4022;BME280;2025;48.260;16.432;2023-04-21T00:30:37;99865.06;;;5.17;88.50
4022;BME280;2025;48.260;16.432;2023-04-21T00:33:04;99862.44;;;5.17;90.04
4022;BME280;2025;48.260;16.432;2023-04-21T00:35:31;99862.94;;;5.42;89.17
4022;BME280;2025;48.260;16.432;2023-04-21T00:37:58;99861.34;;;5.51;89.21
4022;BME280;2025;48.260;16.432;2023-04-21T00:40:25;99861.06;;;5.63;89.28
4022;BME280;2025;48.260;16.432;2023-04-21T00:42:52;99858.88;;;5.59;88.86
4022;BME280;2025;48.260;16.432;2023-04-21T00:45:19;99862.59;;;5.66;88.58
4022;BME280;2025;48.260;16.432;2023-04-21T00:47:48;99863.66;;;5.54;88.30
4022;BME280;2025;48.260;16.432;2023-04-21T00:50:15;99868.28;;;5.31;88.32
4022;BME280;2025;48.260;16.432;2023-04-21T00:52:42;99871.16;;;5.27;89.97
4022;BME280;2025;48.260;16.432;2023-04-21T00:55:11;99866.38;;;5.33;90.53
4022;BME280;2025;48.260;16.432;2023-04-21T00:57:38;99863.28;;;5.58;89.23
4022;BME280;2025;48.260;16.432;2023-04-21T01:00:06;99874.81;;;5.56;89.18
4022;BME280;2025;48.260;16.432;2023-04-21T01:02:35;99864.38;;;5.75;88.60
4022;BME280;2025;48.260;16.432;2023-04-21T01:05:06;99866.69;;;5.59;88.30
4022;BME280;2025;48.260;16.432;2023-04-21T01:07:33;99864.75;;;5.41;88.32
4022;BME280;2025;48.260;16.432;2023-04-21T01:10:01;99863.88;;;5.31;88.50
4022;BME280;2025;48.260;16.432;2023-04-21T01:12:28;99865.16;;;5.37;88.33
4022;BME280;2025;48.260;16.432;2023-04-21T01:14:55;99851.50;;;5.23;88.46
4022;BME280;2025;48.260;16.432;2023-04-21T01:17:22;99866.78;;;5.38;88.13
4022;BME280;2025;48.260;16.432;2023-04-21T01:19:50;99858.81;;;5.39;88.35
4022;BME280;2025;48.260;16.432;2023-04-21T01:22:20;99861.97;;;5.33;88.27
4022;BME280;2025;48.260;16.432;2023-04-21T01:24:48;99856.25;;;5.09;88.03
4022;BME280;2025;48.260;16.432;2023-04-21T01:27:16;99868.59;;;5.06;88.78
4022;BME280;2025;48.260;16.432;2023-04-21T01:29:45;99859.69;;;5.09;88.94
4022;BME280;2025;48.260;16.432;2023-04-21T01:32:15;99858.41;;;5.03;88.93
4022;BME280;2025;48.260;16.432;2023-04-21T01:34:43;99864.88;;;4.99;88.81
4022;BME280;2025;48.260;16.432;2023-04-21T01:37:12;99858.53;;;4.92;89.13
4022;BME280;2025;48.260;16.432;2023-04-21T01:39:43;99864.38;;;4.84;89.57
4022;BME280;2025;48.260;16.432;2023-04-21T01:42:10;99859.16;;;4.84;90.52
4022;BME280;2025;48.260;16.432;2023-04-21T01:44:38;99861.63;;;4.86;90.70
4022;BME280;2025;48.260;16.432;2023-04-21T01:47:05;99858.91;;;4.88;90.89
4022;BME280;2025;48.260;16.432;2023-04-21T01:49:32;99860.53;;;4.89;90.40
4022;BME280;2025;48.260;16.432;2023-04-21T01:51:59;99855.84;;;4.82;90.85
4022;BME280;2025;48.260;16.432;2023-04-21T01:54:26;99859.16;;;4.84;90.67
4022;BME280;2025;48.260;16.432;2023-04-21T01:56:55;99865.22;;;4.85;90.42
4022;BME280;2025;48.260;16.432;2023-04-21T01:59:22;99851.72;;;4.80;90.31
4022;BME280;2025;48.260;16.432;2023-04-21T02:01:49;99857.91;;;4.79;90.02
4022;BME280;2025;48.260;16.432;2023-04-21T02:04:16;99852.09;;;4.75;90.21
4022;BME280;2025;48.260;16.432;2023-04-21T02:06:43;99862.00;;;5.02;89.52
4022;BME280;2025;48.260;16.432;2023-04-21T02:09:10;99857.13;;;4.88;89.29
4022;BME280;2025;48.260;16.432;2023-04-21T02:11:37;99853.81;;;4.86;89.48
4022;BME280;2025;48.260;16.432;2023-04-21T02:14:05;99865.84;;;4.77;89.28
4022;BME280;2025;48.260;16.432;2023-04-21T02:16:32;99861.91;;;4.83;89.24
4022;BME280;2025;48.260;16.432;2023-04-21T02:18:59;99865.38;;;4.93;88.94
4022;BME280;2025;48.260;16.432;2023-04-21T02:21:27;99860.38;;;4.80;89.26
4022;BME280;2025;48.260;16.432;2023-04-21T02:23:54;99856.44;;;4.65;89.47
4022;BME280;2025;48.260;16.432;2023-04-21T02:26:21;99867.19;;;4.72;89.76
4022;BME280;2025;48.260;16.432;2023-04-21T02:28:48;99853.72;;;4.97;89.14
4022;BME280;2025;48.260;16.432;2023-04-21T02:31:17;99857.94;;;4.89;88.85
4022;BME280;2025;48.260;16.432;2023-04-21T02:33:44;99855.31;;;4.89;89.38
4022;BME280;2025;48.260;16.432;2023-04-21T02:36:11;99854.00;;;4.94;89.44
4022;BME280;2025;48.260;16.432;2023-04-21T02:38:38;99860.44;;;4.90;89.57
4022;BME280;2025;48.260;16.432;2023-04-21T02:41:05;99858.63;;;4.91;89.45
4022;BME280;2025;48.260;16.432;2023-04-21T02:43:32;99858.75;;;4.89;89.42
4022;BME280;2025;48.260;16.432;2023-04-21T02:45:59;99846.94;;;4.85;89.19
4022;BME280;2025;48.260;16.432;2023-04-21T02:48:27;99848.00;;;4.82;89.31
4022;BME280;2025;48.260;16.432;2023-04-21T02:50:54;99847.34;;;4.80;89.32
4022;BME280;2025;48.260;16.432;2023-04-21T02:53:21;99855.41;;;4.77;89.30
4022;BME280;2025;48.260;16.432;2023-04-21T02:55:48;99856.63;;;4.73;89.19
4022;BME280;2025;48.260;16.432;2023-04-21T02:58:15;99854.41;;;4.69;89.21
4022;BME280;2025;48.260;16.432;2023-04-21T03:00:42;99855.19;;;4.59;89.21
4022;BME280;2025;48.260;16.432;2023-04-21T03:03:09;99855.69;;;4.53;89.55
4022;BME280;2025;48.260;16.432;2023-04-21T03:05:38;99856.66;;;4.52;89.89
4022;BME280;2025;48.260;16.432;2023-04-21T03:08:05;99862.81;;;4.51;90.52
4022;BME280;2025;48.260;16.432;2023-04-21T03:10:32;99866.94;;;4.54;90.78
4022;BME280;2025;48.260;16.432;2023-04-21T03:12:58;99868.84;;;4.52;90.91
4022;BME280;2025;48.260;16.432;2023-04-21T03:15:25;99857.41;;;4.64;90.20
4022;BME280;2025;48.260;16.432;2023-04-21T03:17:52;99868.44;;;4.77;89.58
4022;BME280;2025;48.260;16.432;2023-04-21T03:20:20;99861.81;;;4.94;89.04
4022;BME280;2025;48.260;16.432;2023-04-21T03:22:48;99867.38;;;4.80;89.30
4022;BME280;2025;48.260;16.432;2023-04-21T03:25:15;99867.91;;;4.53;88.77
4022;BME280;2025;48.260;16.432;2023-04-21T03:27:42;99867.09;;;4.31;88.66
4022;BME280;2025;48.260;16.432;2023-04-21T03:30:10;99870.50;;;4.32;89.38
4022;BME280;2025;48.260;16.432;2023-04-21T03:32:37;99863.25;;;4.35;89.13
4022;BME280;2025;48.260;16.432;2023-04-21T03:35:04;99860.56;;;4.26;89.22
4022;BME280;2025;48.260;16.432;2023-04-21T03:37:31;99860.06;;;4.11;89.26
4022;BME280;2025;48.260;16.432;2023-04-21T03:40:00;99856.41;;;4.02;89.99
4022;BME280;2025;48.260;16.432;2023-04-21T03:42:27;99856.16;;;4.05;90.67
4022;BME280;2025;48.260;16.432;2023-04-21T03:44:54;99859.53;;;4.17;91.53
4022;BME280;2025;48.260;16.432;2023-04-21T03:47:21;99854.53;;;4.25;90.76
4022;BME280;2025;48.260;16.432;2023-04-21T03:49:48;99857.16;;;4.25;90.54
4022;BME280;2025;48.260;16.432;2023-04-21T03:52:15;99862.16;;;4.17;90.19
4022;BME280;2025;48.260;16.432;2023-04-21T03:54:42;99865.84;;;4.14;90.17
4022;BME280;2025;48.260;16.432;2023-04-21T03:57:11;99866.91;;;4.12;90.51
4022;BME280;2025;48.260;16.432;2023-04-21T03:59:38;99869.41;;;4.13;90.19
4022;BME280;2025;48.260;16.432;2023-04-21T04:02:05;99878.13;;;4.23;90.07
4022;BME280;2025;48.260;16.432;2023-04-21T04:04:32;99877.38;;;4.33;89.71
4022;BME280;2025;48.260;16.432;2023-04-21T04:06:59;99873.81;;;4.34;90.07
4022;BME280;2025;48.260;16.432;2023-04-21T04:09:25;99872.53;;;4.28;89.71
4022;BME280;2025;48.260;16.432;2023-04-21T04:11:52;99873.28;;;4.19;89.79
4022;BME280;2025;48.260;16.432;2023-04-21T04:14:21;99894.09;;;4.30;90.01
4022;BME280;2025;48.260;16.432;2023-04-21T04:16:48;99886.16;;;4.32;89.73
4022;BME280;2025;48.260;16.432;2023-04-21T04:19:15;99885.56;;;4.28;89.99
4022;BME280;2025;48.260;16.432;2023-04-21T04:21:42;99889.47;;;4.34;89.79
4022;BME280;2025;48.260;16.432;2023-04-21T04:24:09;99889.69;;;4.31;89.68
4022;BME280;2025;48.260;16.432;2023-04-21T04:26:36;99893.16;;;4.31;89.98
4022;BME280;2025;48.260;16.432;2023-04-21T04:29:04;99889.09;;;4.38;89.67
4022;BME280;2025;48.260;16.432;2023-04-21T04:31:36;99895.25;;;4.37;89.72
4022;BME280;2025;48.260;16.432;2023-04-21T04:34:03;99893.72;;;4.35;90.05
4022;BME280;2025;48.260;16.432;2023-04-21T04:36:31;99899.53;;;4.38;89.99
4022;BME280;2025;48.260;16.432;2023-04-21T04:38:58;99891.75;;;4.48;90.10
4022;BME280;2025;48.260;16.432;2023-04-21T04:41:25;99895.31;;;4.47;90.00
4022;BME280;2025;48.260;16.432;2023-04-21T04:43:52;99896.16;;;4.48;90.37
4022;BME280;2025;48.260;16.432;2023-04-21T04:46:19;99894.59;;;4.66;90.24
4022;BME280;2025;48.260;16.432;2023-04-21T04:48:47;99899.53;;;4.59;90.15
4022;BME280;2025;48.260;16.432;2023-04-21T04:51:14;99901.13;;;4.72;91.00
4022;BME280;2025;48.260;16.432;2023-04-21T04:53:41;99899.91;;;4.76;90.86
4022;BME280;2025;48.260;16.432;2023-04-21T04:56:08;99896.63;;;5.04;90.28
4022;BME280;2025;48.260;16.432;2023-04-21T04:58:35;99898.72;;;5.11;90.31
4022;BME280;2025;48.260;16.432;2023-04-21T05:01:10;99912.63;;;5.21;90.31
4022;BME280;2025;48.260;16.432;2023-04-21T05:03:38;99913.16;;;5.45;89.79
4022;BME280;2025;48.260;16.432;2023-04-21T05:06:07;99912.63;;;5.52;90.27
4022;BME280;2025;48.260;16.432;2023-04-21T05:08:34;99911.53;;;5.64;90.34
4022;BME280;2025;48.260;16.432;2023-04-21T05:11:01;99916.13;;;5.81;90.38
4022;BME280;2025;48.260;16.432;2023-04-21T05:13:28;99912.44;;;5.94;90.38
4022;BME280;2025;48.260;16.432;2023-04-21T05:15:58;99918.69;;;6.12;90.54
4022;BME280;2025;48.260;16.432;2023-04-21T05:18:26;99918.00;;;6.39;89.90
4022;BME280;2025;48.260;16.432;2023-04-21T05:20:53;99920.47;;;6.60;89.41
4022;BME280;2025;48.260;16.432;2023-04-21T05:23:22;99915.09;;;6.71;89.30
4022;BME280;2025;48.260;16.432;2023-04-21T05:25:49;99917.28;;;6.86;89.55
4022;BME280;2025;48.260;16.432;2023-04-21T05:28:16;99926.31;;;7.01;89.24
4022;BME280;2025;48.260;16.432;2023-04-21T05:30:43;99919.78;;;7.15;89.28
4022;BME280;2025;48.260;16.432;2023-04-21T05:33:10;99924.28;;;7.32;89.07
4022;BME280;2025;48.260;16.432;2023-04-21T05:35:37;99919.09;;;7.50;88.98
4022;BME280;2025;48.260;16.432;2023-04-21T05:38:04;99931.75;;;7.65;87.89
4022;BME280;2025;48.260;16.432;2023-04-21T05:40:33;99921.28;;;7.82;86.79
4022;BME280;2025;48.260;16.432;2023-04-21T05:43:00;99924.38;;;7.96;86.04
4022;BME280;2025;48.260;16.432;2023-04-21T05:45:27;99923.72;;;8.12;85.73
4022;BME280;2025;48.260;16.432;2023-04-21T05:47:54;99919.56;;;8.27;85.33
4022;BME280;2025;48.260;16.432;2023-04-21T05:50:20;99920.28;;;8.47;84.84
4022;BME280;2025;48.260;16.432;2023-04-21T05:52:47;99920.72;;;8.60;83.98
4022;BME280;2025;48.260;16.432;2023-04-21T05:55:14;99922.28;;;8.71;82.03
4022;BME280;2025;48.260;16.432;2023-04-21T05:57:43;99929.50;;;8.95;81.88
4022;BME280;2025;48.260;16.432;2023-04-21T06:00:11;99924.19;;;9.13;80.43
4022;BME280;2025;48.260;16.432;2023-04-21T06:02:38;99932.34;;;9.36;79.92
4022;BME280;2025;48.260;16.432;2023-04-21T06:05:05;99940.16;;;9.54;78.29
4022;BME280;2025;48.260;16.432;2023-04-21T06:07:32;99938.91;;;9.66;79.17
4022;BME280;2025;48.260;16.432;2023-04-21T06:10:01;99939.22;;;9.71;78.04
4022;BME280;2025;48.260;16.432;2023-04-21T06:12:28;99937.25;;;9.65;78.70
4022;BME280;2025;48.260;16.432;2023-04-21T06:14:56;99939.41;;;9.70;77.08
4022;BME280;2025;48.260;16.432;2023-04-21T06:17:24;99932.34;;;9.70;76.94
4022;BME280;2025;48.260;16.432;2023-04-21T06:19:51;99934.34;;;9.77;76.61
4022;BME280;2025;48.260;16.432;2023-04-21T06:22:18;99938.81;;;9.92;75.57
4022;BME280;2025;48.260;16.432;2023-04-21T06:24:46;99941.31;;;10.02;74.63
4022;BME280;2025;48.260;16.432;2023-04-21T06:27:13;99937.56;;;10.21;76.04
4022;BME280;2025;48.260;16.432;2023-04-21T06:29:40;99934.31;;;10.36;73.57
4022;BME280;2025;48.260;16.432;2023-04-21T06:32:09;99931.69;;;10.52;72.79
4022;BME280;2025;48.260;16.432;2023-04-21T06:34:37;99934.34;;;10.68;71.95
4022;BME280;2025;48.260;16.432;2023-04-21T06:37:04;99936.28;;;10.83;71.60
4022;BME280;2025;48.260;16.432;2023-04-21T06:39:31;99932.50;;;10.85;71.07
4022;BME280;2025;48.260;16.432;2023-04-21T06:41:58;99935.13;;;10.85;70.03
4022;BME280;2025;48.260;16.432;2023-04-21T06:44:25;99936.63;;;10.88;70.90
4022;BME280;2025;48.260;16.432;2023-04-21T06:46:52;99933.13;;;11.04;69.58
4022;BME280;2025;48.260;16.432;2023-04-21T06:49:20;99933.47;;;11.01;70.36
4022;BME280;2025;48.260;16.432;2023-04-21T06:51:47;99930.00;;;11.08;68.98
4022;BME280;2025;48.260;16.432;2023-04-21T06:54:14;99931.78;;;11.16;69.67
4022;BME280;2025;48.260;16.432;2023-04-21T06:56:41;99925.81;;;11.30;68.43
4022;BME280;2025;48.260;16.432;2023-04-21T06:59:08;99937.66;;;11.43;67.68
4022;BME280;2025;48.260;16.432;2023-04-21T07:01:35;99923.81;;;11.32;67.48
4022;BME280;2025;48.260;16.432;2023-04-21T07:04:02;99936.81;;;11.42;69.01
4022;BME280;2025;48.260;16.432;2023-04-21T07:06:32;99932.00;;;11.54;67.84
4022;BME280;2025;48.260;16.432;2023-04-21T07:08:59;99937.25;;;11.62;68.51
4022;BME280;2025;48.260;16.432;2023-04-21T07:11:26;99928.72;;;11.91;67.49
4022;BME280;2025;48.260;16.432;2023-04-21T07:13:53;99929.16;;;12.03;66.19
4022;BME280;2025;48.260;16.432;2023-04-21T07:16:20;99934.78;;;12.23;64.17
4022;BME280;2025;48.260;16.432;2023-04-21T07:18:48;99939.97;;;12.39;63.59
4022;BME280;2025;48.260;16.432;2023-04-21T07:21:16;99941.38;;;12.50;64.43
4022;BME280;2025;48.260;16.432;2023-04-21T07:23:44;99934.66;;;12.62;64.66
4022;BME280;2025;48.260;16.432;2023-04-21T07:26:11;99931.72;;;12.80;64.79
4022;BME280;2025;48.260;16.432;2023-04-21T07:28:38;99939.44;;;12.82;63.45
4022;BME280;2025;48.260;16.432;2023-04-21T07:31:06;99928.31;;;12.86;62.81
4022;BME280;2025;48.260;16.432;2023-04-21T07:33:33;99934.38;;;12.95;63.04
4022;BME280;2025;48.260;16.432;2023-04-21T07:36:00;99932.19;;;13.14;61.72
4022;BME280;2025;48.260;16.432;2023-04-21T07:38:26;99934.06;;;13.28;60.75
4022;BME280;2025;48.260;16.432;2023-04-21T07:40:55;99935.53;;;13.45;61.09
4022;BME280;2025;48.260;16.432;2023-04-21T07:43:22;99934.72;;;13.45;59.67
4022;BME280;2025;48.260;16.432;2023-04-21T07:45:49;99939.44;;;13.49;60.21
4022;BME280;2025;48.260;16.432;2023-04-21T07:48:17;99934.06;;;13.58;57.67
4022;BME280;2025;48.260;16.432;2023-04-21T07:50:44;99940.88;;;13.67;58.95
4022;BME280;2025;48.260;16.432;2023-04-21T07:53:11;99938.16;;;13.60;57.15
4022;BME280;2025;48.260;16.432;2023-04-21T07:55:38;99943.81;;;13.57;58.44
4022;BME280;2025;48.260;16.432;2023-04-21T07:58:06;99940.78;;;13.60;58.95
4022;BME280;2025;48.260;16.432;2023-04-21T08:00:35;99936.97;;;13.63;58.13
4022;BME280;2025;48.260;16.432;2023-04-21T08:03:01;99939.16;;;13.44;59.40
4022;BME280;2025;48.260;16.432;2023-04-21T08:05:28;99941.81;;;13.59;57.94
4022;BME280;2025;48.260;16.432;2023-04-21T08:07:56;99942.28;;;13.48;58.87
4022;BME280;2025;48.260;16.432;2023-04-21T08:10:23;99943.44;;;13.60;58.45
4022;BME280;2025;48.260;16.432;2023-04-21T08:12:51;99944.69;;;13.79;58.87
4022;BME280;2025;48.260;16.432;2023-04-21T08:15:19;99942.84;;;13.95;56.80
4022;BME280;2025;48.260;16.432;2023-04-21T08:17:46;99936.44;;;13.89;55.96
4022;BME280;2025;48.260;16.432;2023-04-21T08:20:13;99951.13;;;13.91;55.53
4022;BME280;2025;48.260;16.432;2023-04-21T08:22:40;99934.25;;;13.93;55.07
4022;BME280;2025;48.260;16.432;2023-04-21T08:25:08;99942.22;;;13.93;55.37
4022;BME280;2025;48.260;16.432;2023-04-21T08:27:37;99936.84;;;13.86;55.83
4022;BME280;2025;48.260;16.432;2023-04-21T08:30:06;99942.28;;;13.99;56.64
4022;BME280;2025;48.260;16.432;2023-04-21T08:32:34;99939.66;;;14.21;54.65
4022;BME280;2025;48.260;16.432;2023-04-21T08:35:01;99939.00;;;14.55;55.41
4022;BME280;2025;48.260;16.432;2023-04-21T08:37:28;99939.88;;;14.41;55.66
4022;BME280;2025;48.260;16.432;2023-04-21T08:39:55;99931.47;;;14.59;56.55
4022;BME280;2025;48.260;16.432;2023-04-21T08:42:22;99933.38;;;14.93;54.79
4022;BME280;2025;48.260;16.432;2023-04-21T08:44:49;99928.75;;;15.02;52.84
4022;BME280;2025;48.260;16.432;2023-04-21T08:47:16;99923.06;;;15.05;53.19
4022;BME280;2025;48.260;16.432;2023-04-21T08:49:47;99928.41;;;15.11;52.41
4022;BME280;2025;48.260;16.432;2023-04-21T08:52:15;99926.88;;;15.30;51.32
4022;BME280;2025;48.260;16.432;2023-04-21T08:54:43;99924.53;;;15.49;49.97
4022;BME280;2025;48.260;16.432;2023-04-21T08:57:11;99918.53;;;15.33;49.79
4022;BME280;2025;48.260;16.432;2023-04-21T08:59:38;99920.63;;;15.45;49.50
4022;BME280;2025;48.260;16.432;2023-04-21T09:02:06;99918.41;;;15.48;49.80
4022;BME280;2025;48.260;16.432;2023-04-21T09:04:34;99917.38;;;15.49;50.28
4022;BME280;2025;48.260;16.432;2023-04-21T09:07:04;99919.25;;;15.55;50.29
4022;BME280;2025;48.260;16.432;2023-04-21T09:09:43;99921.69;;;15.57;50.46
4022;BME280;2025;48.260;16.432;2023-04-21T09:12:17;99928.47;;;15.59;50.66
4022;BME280;2025;48.260;16.432;2023-04-21T09:14:44;99921.50;;;15.58;51.49
4022;BME280;2025;48.260;16.432;2023-04-21T09:17:11;99913.94;;;15.55;50.30
4022;BME280;2025;48.260;16.432;2023-04-21T09:19:38;99919.47;;;15.60;50.05
4022;BME280;2025;48.260;16.432;2023-04-21T09:22:06;99912.53;;;15.66;49.28
4022;BME280;2025;48.260;16.432;2023-04-21T09:24:33;99915.53;;;15.50;47.50
4022;BME280;2025;48.260;16.432;2023-04-21T09:27:02;99913.94;;;15.55;47.33
4022;BME280;2025;48.260;16.432;2023-04-21T09:29:29;99913.31;;;15.53;46.89
4022;BME280;2025;48.260;16.432;2023-04-21T09:31:56;99903.53;;;15.60;46.84
4022;BME280;2025;48.260;16.432;2023-04-21T09:34:25;99914.16;;;16.09;45.51
4022;BME280;2025;48.260;16.432;2023-04-21T09:36:58;99892.31;;;16.60;43.39
4022;BME280;2025;48.260;16.432;2023-04-21T09:39:27;99892.69;;;17.03;42.70
4022;BME280;2025;48.260;16.432;2023-04-21T09:41:55;99895.34;;;17.17;41.93
4022;BME280;2025;48.260;16.432;2023-04-21T09:44:23;99891.25;;;17.08;40.45
4022;BME280;2025;48.260;16.432;2023-04-21T09:46:53;99894.78;;;16.95;40.86
4022;BME280;2025;48.260;16.432;2023-04-21T09:49:22;99887.19;;;17.05;41.64
4022;BME280;2025;48.260;16.432;2023-04-21T09:51:49;99882.00;;;17.23;42.43
4022;BME280;2025;48.260;16.432;2023-04-21T09:54:17;99886.84;;;17.46;42.48
4022;BME280;2025;48.260;16.432;2023-04-21T09:56:48;99886.72;;;17.73;40.24
4022;BME280;2025;48.260;16.432;2023-04-21T09:59:21;99886.31;;;17.76;41.01
4022;BME280;2025;48.260;16.432;2023-04-21T10:01:50;99878.53;;;17.75;39.12
4022;BME280;2025;48.260;16.432;2023-04-21T10:04:19;99874.69;;;17.57;40.06
4022;BME280;2025;48.260;16.432;2023-04-21T10:06:47;99873.25;;;17.61;40.55
4022;BME280;2025;48.260;16.432;2023-04-21T10:09:17;99867.81;;;17.43;41.08
4022;BME280;2025;48.260;16.432;2023-04-21T10:11:48;99859.66;;;17.83;40.80
4022;BME280;2025;48.260;16.432;2023-04-21T10:14:15;99860.69;;;18.14;41.69
4022;BME280;2025;48.260;16.432;2023-04-21T10:16:42;99860.81;;;18.25;38.56
4022;BME280;2025;48.260;16.432;2023-04-21T10:19:30;99857.88;;;18.59;37.70
4022;BME280;2025;48.260;16.432;2023-04-21T10:22:00;99851.78;;;18.77;35.08
4022;BME280;2025;48.260;16.432;2023-04-21T10:24:28;99847.94;;;18.91;37.40
4022;BME280;2025;48.260;16.432;2023-04-21T10:26:57;99839.13;;;18.90;36.91
4022;BME280;2025;48.260;16.432;2023-04-21T10:29:33;99848.03;;;19.03;35.97
4022;BME280;2025;48.260;16.432;2023-04-21T10:32:00;99852.44;;;19.27;37.86
4022;BME280;2025;48.260;16.432;2023-04-21T10:34:33;99842.31;;;19.66;34.55
4022;BME280;2025;48.260;16.432;2023-04-21T10:37:07;99834.44;;;20.13;35.25
4022;BME280;2025;48.260;16.432;2023-04-21T10:39:41;99830.16;;;20.12;32.11
4022;BME280;2025;48.260;16.432;2023-04-21T10:42:29;99833.41;;;19.72;32.12
4022;BME280;2025;48.260;16.432;2023-04-21T10:45:09;99831.94;;;19.88;32.26
4022;BME280;2025;48.260;16.432;2023-04-21T10:47:45;99828.50;;;20.11;32.50
4022;BME280;2025;48.260;16.432;2023-04-21T10:50:17;99818.78;;;20.29;32.50
4022;BME280;2025;48.260;16.432;2023-04-21T10:52:46;99832.16;;;20.52;31.87
4022;BME280;2025;48.260;16.432;2023-04-21T10:55:17;99821.81;;;20.56;30.87
4022;BME280;2025;48.260;16.432;2023-04-21T10:57:46;99821.44;;;20.29;32.34
4022;BME280;2025;48.260;16.432;2023-04-21T11:00:16;99816.72;;;20.66;30.61
4022;BME280;2025;48.260;16.432;2023-04-21T11:02:43;99819.88;;;20.63;30.88
4022;BME280;2025;48.260;16.432;2023-04-21T11:05:10;99819.88;;;20.63;31.45
4022;BME280;2025;48.260;16.432;2023-04-21T11:07:37;99816.59;;;20.73;31.01
4022;BME280;2025;48.260;16.432;2023-04-21T11:10:05;99805.88;;;20.84;31.27
4022;BME280;2025;48.260;16.432;2023-04-21T11:12:36;99807.63;;;20.79;30.48
4022;BME280;2025;48.260;16.432;2023-04-21T11:15:07;99800.88;;;20.76;31.17
4022;BME280;2025;48.260;16.432;2023-04-21T11:17:34;99801.69;;;20.53;31.29
4022;BME280;2025;48.260;16.432;2023-04-21T11:20:03;99801.25;;;20.56;31.02
4022;BME280;2025;48.260;16.432;2023-04-21T11:22:31;99792.13;;;20.93;30.88
4022;BME280;2025;48.260;16.432;2023-04-21T11:24:58;99796.91;;;20.79;29.82
4022;BME280;2025;48.260;16.432;2023-04-21T11:27:26;99797.03;;;20.84;29.05
4022;BME280;2025;48.260;16.432;2023-04-21T11:29:53;99799.25;;;20.87;27.83
4022;BME280;2025;48.260;16.432;2023-04-21T11:32:23;99793.91;;;20.28;29.03
4022;BME280;2025;48.260;16.432;2023-04-21T11:34:50;99785.63;;;20.30;30.11
4022;BME280;2025;48.260;16.432;2023-04-21T11:37:22;99788.78;;;20.27;29.27
4022;BME280;2025;48.260;16.432;2023-04-21T11:39:56;99796.56;;;20.52;28.23
4022;BME280;2025;48.260;16.432;2023-04-21T11:42:23;99782.41;;;20.75;27.95
4022;BME280;2025;48.260;16.432;2023-04-21T11:44:52;99788.16;;;20.95;28.16
4022;BME280;2025;48.260;16.432;2023-04-21T11:47:21;99785.13;;;21.03;28.07
4022;BME280;2025;48.260;16.432;2023-04-21T11:49:51;99782.69;;;20.90;28.45
4022;BME280;2025;48.260;16.432;2023-04-21T11:52:23;99786.16;;;21.02;31.66
4022;BME280;2025;48.260;16.432;2023-04-21T11:54:54;99778.50;;;20.94;27.31
4022;BME280;2025;48.260;16.432;2023-04-21T11:57:22;99783.19;;;20.52;27.42
4022;BME280;2025;48.260;16.432;2023-04-21T11:59:51;99784.72;;;20.59;28.46
4022;BME280;2025;48.260;16.432;2023-04-21T12:02:23;99773.78;;;20.73;27.40
4022;BME280;2025;48.260;16.432;2023-04-21T12:05:00;99783.53;;;20.79;27.33
4022;BME280;2025;48.260;16.432;2023-04-21T12:07:29;99778.19;;;20.79;28.10
4022;BME280;2025;48.260;16.432;2023-04-21T12:09:57;99769.25;;;20.61;27.66
4022;BME280;2025;48.260;16.432;2023-04-21T12:12:24;99769.47;;;20.72;29.36
4022;BME280;2025;48.260;16.432;2023-04-21T12:14:51;99779.41;;;21.00;27.64
4022;BME280;2025;48.260;16.432;2023-04-21T12:17:18;99761.13;;;21.09;27.30
4022;BME280;2025;48.260;16.432;2023-04-21T12:19:45;99760.66;;;21.00;27.11
4022;BME280;2025;48.260;16.432;2023-04-21T12:22:15;99761.59;;;21.05;27.22
4022;BME280;2025;48.260;16.432;2023-04-21T12:24:43;99764.00;;;21.19;27.18
4022;BME280;2025;48.260;16.432;2023-04-21T12:27:11;99763.13;;;21.01;26.61
4022;BME280;2025;48.260;16.432;2023-04-21T12:29:38;99751.47;;;21.08;26.72
4022;BME280;2025;48.260;16.432;2023-04-21T12:32:06;99749.47;;;21.15;26.70
4022;BME280;2025;48.260;16.432;2023-04-21T12:34:33;99747.81;;;21.14;26.90
4022;BME280;2025;48.260;16.432;2023-04-21T12:37:01;99749.50;;;21.03;27.82
4022;BME280;2025;48.260;16.432;2023-04-21T12:39:29;99753.38;;;21.24;27.13
4022;BME280;2025;48.260;16.432;2023-04-21T12:41:56;99741.13;;;21.28;29.48
4022;BME280;2025;48.260;16.432;2023-04-21T12:44:23;99748.69;;;21.60;25.61
4022;BME280;2025;48.260;16.432;2023-04-21T12:46:50;99747.66;;;21.61;25.94
4022;BME280;2025;48.260;16.432;2023-04-21T12:49:17;99745.03;;;21.37;26.89
4022;BME280;2025;48.260;16.432;2023-04-21T12:51:44;99745.88;;;21.38;26.40
4022;BME280;2025;48.260;16.432;2023-04-21T12:54:12;99744.88;;;21.56;25.90
4022;BME280;2025;48.260;16.432;2023-04-21T12:56:40;99733.09;;;21.28;27.85
4022;BME280;2025;48.260;16.432;2023-04-21T12:59:08;99738.66;;;20.34;26.72
4022;BME280;2025;48.260;16.432;2023-04-21T13:01:36;99737.28;;;20.31;29.07
4022;BME280;2025;48.260;16.432;2023-04-21T13:04:03;99738.63;;;20.81;26.32
4022;BME280;2025;48.260;16.432;2023-04-21T13:06:31;99732.09;;;20.89;25.70
4022;BME280;2025;48.260;16.432;2023-04-21T13:08:59;99727.25;;;20.62;28.44
4022;BME280;2025;48.260;16.432;2023-04-21T13:11:26;99728.22;;;20.96;27.51
4022;BME280;2025;48.260;16.432;2023-04-21T13:13:54;99725.50;;;21.08;26.92
4022;BME280;2025;48.260;16.432;2023-04-21T13:16:22;99726.66;;;21.12;27.13
4022;BME280;2025;48.260;16.432;2023-04-21T13:18:49;99724.00;;;21.29;27.85
4022;BME280;2025;48.260;16.432;2023-04-21T13:21:16;99717.72;;;21.23;26.83